Time;durP1;ratioP1;P1;durP2;ratioP2;P2;SDS_P1;SDS_P2;PMS_P1;PMS_P2;Temp;Humidity;BMP_temperature;BMP_pressure;BME280_temperature;BME280_humidity;BME280_pressure;Samples;Min_cycle;Max_cycle;Signal;HPM_P1;HPM_P2
2023/04/18 04:01:41;;;;;;;1.30;1.23;;;8.10;99.90;;;;;;5442983;23;21045;-75
2023/04/18 04:04:10;;;;;;;3.07;1.50;;;8.00;99.90;;;;;;4936521;29;20494;-75
2023/04/18 04:06:39;;;;;;;3.70;0.57;;;7.90;99.90;;;;;;4935971;29;20451;-75
2023/04/18 04:09:09;;;;;;;1.77;1.27;;;7.80;99.90;;;;;;4937268;29;20450;-75
2023/04/18 04:11:38;;;;;;;0.60;0.20;;;7.80;99.90;;;;;;4936744;29;20966;-75
2023/04/18 04:14:06;;;;;;;2.50;2.40;;;7.80;99.90;;;;;;4936288;29;20468;-75
2023/04/18 04:16:34;;;;;;;2.20;2.10;;;7.80;99.90;;;;;;4958568;23;21048;-73
2023/04/18 04:19:03;;;;;;;0.60;0.40;;;7.80;99.90;;;;;;4936835;29;20456;-73
2023/04/18 04:21:31;;;;;;;0.50;0.20;;;7.80;99.90;;;;;;4937395;29;21008;-72
2023/04/18 04:24:00;;;;;;;0.50;0.20;;;7.80;99.90;;;;;;4934614;29;20486;-73
2023/04/18 04:26:29;;;;;;;1.00;0.80;;;7.80;99.90;;;;;;4927041;29;20499;-73
2023/04/18 04:28:57;;;;;;;1.23;1.13;;;7.80;99.90;;;;;;4918112;29;20483;-73
2023/04/18 04:31:25;;;;;;;12.40;3.87;;;7.70;99.90;;;;;;4912732;29;20472;-73
2023/04/18 04:33:53;;;;;;;1.07;0.97;;;7.80;99.90;;;;;;4910950;29;20457;-73
2023/04/18 04:36:26;;;;;;;1.23;1.10;;;7.80;99.90;;;;;;4912195;29;20495;-72
2023/04/18 04:38:54;;;;;;;1.63;0.93;;;7.80;99.90;;;;;;4917648;29;20453;-73
2023/04/18 04:41:22;;;;;;;2.43;2.07;;;7.80;99.90;;;;;;4918172;29;20716;-72
2023/04/18 04:43:51;;;;;;;2.10;1.40;;;7.80;99.90;;;;;;4913619;29;20512;-72
2023/04/18 04:46:19;;;;;;;0.50;0.20;;;7.70;99.90;;;;;;4900139;29;20984;-73
2023/04/18 04:48:48;;;;;;;0.77;0.77;;;7.70;99.90;;;;;;4903839;29;20457;-72
2023/04/18 04:51:16;;;;;;;0.50;0.20;;;7.70;99.90;;;;;;4908394;29;20456;-73
2023/04/18 04:53:45;;;;;;;1.53;0.93;;;7.70;99.90;;;;;;4909414;29;20535;-73
2023/04/18 04:56:13;;;;;;;2.13;1.47;;;7.70;99.90;;;;;;4902258;29;20563;-73
2023/04/18 04:58:41;;;;;;;0.50;0.10;;;7.80;99.90;;;;;;4914056;29;20533;-72
2023/04/18 05:01:09;;;;;;;0.60;0.60;;;7.80;99.90;;;;;;4905879;29;20450;-72
2023/04/18 05:03:37;;;;;;;0.87;0.20;;;7.80;99.90;;;;;;4901640;29;20497;-73
2023/04/18 05:06:06;;;;;;;3.20;2.90;;;7.80;99.90;;;;;;4911379;29;20492;-73
2023/04/18 05:08:33;;;;;;;4.23;1.27;;;7.80;99.90;;;;;;4918855;29;20461;-73
2023/04/18 05:11:03;;;;;;;0.60;0.43;;;7.80;99.90;;;;;;4910728;29;20473;-73
2023/04/18 05:13:31;;;;;;;2.57;0.50;;;7.90;99.90;;;;;;4918937;29;20811;-73
2023/04/18 05:15:59;;;;;;;0.60;0.60;;;7.90;99.90;;;;;;4917720;29;20476;-72
2023/04/18 05:18:27;;;;;;;1.10;0.93;;;7.90;99.90;;;;;;4907822;29;20802;-73
2023/04/18 05:20:55;;;;;;;0.60;0.23;;;7.90;99.90;;;;;;4903655;29;20461;-72
2023/04/18 05:23:23;;;;;;;4.00;1.23;;;7.90;99.90;;;;;;4915913;29;20548;-73
2023/04/18 05:25:52;;;;;;;0.60;0.10;;;8.00;99.90;;;;;;4902156;29;20535;-73
2023/04/18 05:28:23;;;;;;;2.67;2.47;;;7.90;99.90;;;;;;4916540;29;20962;-73
2023/04/18 05:30:51;;;;;;;1.90;1.80;;;8.00;99.90;;;;;;4916006;29;21078;-73
2023/04/18 05:33:19;;;;;;;0.60;0.47;;;8.00;99.90;;;;;;4915764;29;20461;-73
2023/04/18 05:35:47;;;;;;;0.60;0.50;;;8.10;99.90;;;;;;4899829;29;20480;-73
2023/04/18 05:38:14;;;;;;;0.50;0.20;;;8.10;99.90;;;;;;4913001;29;20544;-73
2023/04/18 05:40:42;;;;;;;0.60;0.30;;;8.10;99.90;;;;;;4907704;29;20826;-73
2023/04/18 05:43:10;;;;;;;0.50;0.10;;;8.10;99.90;;;;;;4918081;29;20479;-72
2023/04/18 05:45:40;;;;;;;2.00;1.07;;;;;;;;;;4914269;29;20492;-72
2023/04/18 05:48:08;;;;;;;0.50;0.10;;;8.20;99.90;;;;;;4912951;29;20455;-74
2023/04/18 05:50:40;;;;;;;0.50;0.20;;;;;;;;;;4916859;29;20453;-74
2023/04/18 05:53:07;;;;;;;0.50;0.17;;;8.40;99.90;;;;;;4913709;29;21013;-73
2023/04/18 05:55:35;;;;;;;0.50;0.10;;;8.50;99.90;;;;;;4914645;29;20465;-74
2023/04/18 05:58:03;;;;;;;0.50;0.17;;;8.40;99.90;;;;;;4914516;29;20456;-73
2023/04/18 06:00:31;;;;;;;2.40;0.70;;;8.50;99.90;;;;;;4914234;29;20440;-74
2023/04/18 06:03:00;;;;;;;2.27;0.70;;;8.50;99.90;;;;;;4915299;29;20971;-73
2023/04/18 06:05:29;;;;;;;0.50;0.10;;;8.50;99.90;;;;;;4914137;29;20576;-74
2023/04/18 06:07:58;;;;;;;0.60;0.30;;;8.50;99.90;;;;;;4914958;29;20996;-75
2023/04/18 06:10:26;;;;;;;1.10;0.83;;;8.50;99.90;;;;;;4906914;29;20456;-73
2023/04/18 06:12:53;;;;;;;0.50;0.27;;;8.50;99.90;;;;;;4912916;29;20471;-74
2023/04/18 06:15:21;;;;;;;0.77;0.50;;;8.40;99.90;;;;;;4918837;29;20487;-74
2023/04/18 06:17:49;;;;;;;1.07;0.50;;;8.40;99.90;;;;;;4917083;29;20456;-73
2023/04/18 06:20:18;;;;;;;0.80;0.53;;;8.40;99.90;;;;;;4916786;29;20457;-73
2023/04/18 06:22:46;;;;;;;0.50;0.20;;;8.40;99.90;;;;;;4916699;29;20492;-72
2023/04/18 06:25:14;;;;;;;4.13;3.17;;;8.60;99.90;;;;;;4920601;29;20495;-74
2023/04/18 06:27:42;;;;;;;0.63;0.53;;;8.50;99.90;;;;;;4921536;29;20460;-73
2023/04/18 06:30:10;;;;;;;0.50;0.10;;;8.60;99.90;;;;;;4920154;29;20448;-73
2023/04/18 06:32:39;;;;;;;0.50;0.10;;;8.60;99.90;;;;;;4916585;29;20784;-73
2023/04/18 06:35:07;;;;;;;0.57;0.27;;;8.60;99.90;;;;;;4899693;29;20721;-75
2023/04/18 06:37:36;;;;;;;0.60;0.40;;;8.70;99.90;;;;;;4915679;29;20460;-75
2023/04/18 06:40:05;;;;;;;0.50;0.20;;;8.70;99.90;;;;;;4917435;29;20452;-75
2023/04/18 06:42:33;;;;;;;2.83;2.73;;;8.70;99.90;;;;;;4924597;29;20449;-75
2023/04/18 06:45:02;;;;;;;0.50;0.10;;;8.80;99.90;;;;;;4918475;29;20472;-76
2023/04/18 06:47:31;;;;;;;0.60;0.40;;;;;;;;;;4918743;29;20484;-76
2023/04/18 06:49:59;;;;;;;2.33;2.13;;;8.80;99.90;;;;;;4919229;29;20472;-75
2023/04/18 06:52:27;;;;;;;0.50;0.10;;;8.80;99.90;;;;;;4920229;29;20448;-75
2023/04/18 06:54:56;;;;;;;1.63;1.53;;;8.80;99.90;;;;;;4925097;29;20481;-75
2023/04/18 06:57:24;;;;;;;0.73;0.73;;;8.80;99.90;;;;;;4922336;29;20991;-73
2023/04/18 06:59:51;;;;;;;0.83;0.67;;;8.90;99.90;;;;;;4919098;29;20452;-74
2023/04/18 07:02:19;;;;;;;1.17;0.40;;;8.90;99.90;;;;;;4920141;29;20460;-75
2023/04/18 07:04:48;;;;;;;0.50;0.20;;;8.90;99.90;;;;;;4920559;29;20457;-75
2023/04/18 07:07:15;;;;;;;1.67;1.40;;;8.90;99.90;;;;;;4920000;29;20665;-74
2023/04/18 07:09:43;;;;;;;0.60;0.30;;;8.90;99.90;;;;;;4920224;29;20457;-75
2023/04/18 07:12:12;;;;;;;1.63;0.53;;;9.00;99.90;;;;;;4928625;29;20970;-75
2023/04/18 07:14:40;;;;;;;0.60;0.27;;;9.00;99.90;;;;;;4926826;29;20489;-75
2023/04/18 07:17:09;;;;;;;0.60;0.30;;;;;;;;;;4927664;29;20482;-75
2023/04/18 07:19:37;;;;;;;0.60;0.10;;;9.10;99.90;;;;;;4919704;29;20512;-76
2023/04/18 07:22:04;;;;;;;3.33;0.70;;;9.10;99.90;;;;;;4918471;29;20456;-75
2023/04/18 07:24:32;;;;;;;0.50;0.10;;;9.20;99.90;;;;;;4918513;29;20456;-73
2023/04/18 07:27:02;;;;;;;1.97;0.73;;;9.30;99.90;;;;;;4907061;29;20930;-75
2023/04/18 07:29:31;;;;;;;1.67;0.77;;;9.30;99.90;;;;;;4899968;29;20862;-75
2023/04/18 07:31:59;;;;;;;4.13;1.37;;;9.40;99.90;;;;;;4899769;29;20460;-75
2023/04/18 07:34:28;;;;;;;3.60;1.37;;;9.50;99.90;;;;;;4910791;29;20948;-76
2023/04/18 07:36:57;;;;;;;1.53;0.40;;;9.50;99.90;;;;;;4918694;29;20477;-74
2023/04/18 07:39:24;;;;;;;0.50;0.20;;;9.50;99.90;;;;;;4922508;29;20811;-73
2023/04/18 07:41:53;;;;;;;1.13;1.03;;;;;;;;;;4923858;29;20462;-75
2023/04/18 07:44:21;;;;;;;1.10;0.37;;;9.60;99.90;;;;;;4920902;29;20540;-76
2023/04/18 07:46:51;;;;;;;0.93;0.83;;;9.70;99.90;;;;;;4918236;29;21063;-75
2023/04/18 07:49:19;;;;;;;3.03;2.83;;;9.70;99.90;;;;;;4918019;29;20472;-75
2023/04/18 07:51:47;;;;;;;0.50;0.10;;;9.80;99.90;;;;;;4918236;29;20468;-76
2023/04/18 07:54:15;;;;;;;0.60;0.10;;;9.80;99.90;;;;;;4919481;29;20449;-76
2023/04/18 07:56:43;;;;;;;0.50;0.10;;;9.80;99.90;;;;;;4918122;29;20468;-74
2023/04/18 07:59:11;;;;;;;0.60;0.10;;;9.90;99.90;;;;;;4918604;29;20817;-75
2023/04/18 08:01:39;;;;;;;0.60;0.10;;;10.00;99.90;;;;;;4918119;29;20457;-75
2023/04/18 08:04:08;;;;;;;1.20;0.63;;;10.10;99.90;;;;;;4920483;29;20455;-74
2023/04/18 08:06:37;;;;;;;0.60;0.30;;;10.20;99.90;;;;;;4918961;29;20595;-76
2023/04/18 08:09:05;;;;;;;0.60;0.10;;;10.30;99.90;;;;;;4917667;29;20457;-74
2023/04/18 08:11:33;;;;;;;0.60;0.10;;;10.40;99.90;;;;;;4918332;29;20444;-75
2023/04/18 08:14:02;;;;;;;0.60;0.20;;;10.50;99.90;;;;;;4915750;29;20470;-73
2023/04/18 08:16:29;;;;;;;0.80;0.50;;;10.50;99.90;;;;;;4920521;29;20475;-75
2023/04/18 08:18:57;;;;;;;9.30;8.63;;;10.60;99.90;;;;;;4921833;29;20468;-75
2023/04/18 08:21:26;;;;;;;0.70;0.70;;;10.70;99.90;;;;;;4928675;29;20449;-73
2023/04/18 08:23:54;;;;;;;0.60;0.10;;;10.70;99.90;;;;;;4925913;29;20525;-75
2023/04/18 08:26:22;;;;;;;4.10;2.00;;;10.70;99.90;;;;;;4917510;29;20488;-75
2023/04/18 08:28:50;;;;;;;2.30;2.20;;;10.70;99.90;;;;;;4918395;29;20460;-76
2023/04/18 08:31:18;;;;;;;0.60;0.17;;;10.90;99.90;;;;;;4917611;29;20549;-75
2023/04/18 08:33:46;;;;;;;0.60;0.10;;;10.90;99.90;;;;;;4912014;29;20457;-75
2023/04/18 08:36:14;;;;;;;0.60;0.10;;;11.00;99.90;;;;;;4908496;29;20459;-75
2023/04/18 08:38:43;;;;;;;0.90;0.63;;;11.10;99.90;;;;;;4908148;29;20506;-75
2023/04/18 08:41:11;;;;;;;0.60;0.20;;;11.20;99.90;;;;;;4910285;29;20445;-75
2023/04/18 08:43:39;;;;;;;0.60;0.20;;;11.40;99.90;;;;;;4911722;29;20449;-75
2023/04/18 08:46:07;;;;;;;0.70;0.57;;;11.30;99.90;;;;;;4919330;29;20481;-75
2023/04/18 08:48:35;;;;;;;1.50;1.40;;;11.40;99.90;;;;;;4919441;29;20525;-75
2023/04/18 08:51:04;;;;;;;0.60;0.30;;;11.50;99.90;;;;;;4918560;29;20466;-74
2023/04/18 08:53:34;;;;;;;0.60;0.30;;;11.50;99.90;;;;;;4920169;29;20489;-75
2023/04/18 08:56:04;;;;;;;0.60;0.20;;;11.60;99.90;;;;;;4919510;29;20476;-74
2023/04/18 08:58:33;;;;;;;2.00;1.90;;;11.70;99.90;;;;;;4907267;29;20452;-74
2023/04/18 09:01:01;;;;;;;2.97;2.77;;;11.80;99.90;;;;;;4897683;29;20954;-76
2023/04/18 09:03:38;;;;;;;0.60;0.10;;;11.90;99.90;;;;;;4916043;29;20459;-75
2023/04/18 09:06:08;;;;;;;0.60;0.50;;;11.90;99.90;;;;;;4916322;29;20513;-74
2023/04/18 09:08:37;;;;;;;1.77;1.07;;;12.00;99.90;;;;;;4916391;29;20481;-75
2023/04/18 09:11:27;;;;;;;0.60;0.10;;;12.00;99.90;;;;;;4917635;29;20458;-75
2023/04/18 09:13:59;;;;;;;2.40;1.73;;;12.10;99.90;;;;;;4912890;29;20464;-75
2023/04/18 09:16:28;;;;;;;0.60;0.30;;;12.00;99.90;;;;;;4917112;29;20541;-74
2023/04/18 09:19:11;;;;;;;1.47;0.60;;;12.00;99.90;;;;;;4917703;29;20922;-75
2023/04/18 09:21:41;;;;;;;0.60;0.10;;;12.00;99.90;;;;;;4917825;29;20488;-75
2023/04/18 09:24:22;;;;;;;0.60;0.20;;;12.20;99.90;;;;;;4916771;29;20465;-74
2023/04/18 09:26:54;;;;;;;2.13;1.17;;;12.30;99.90;;;;;;4916720;29;20564;-74
2023/04/18 09:29:41;;;;;;;0.60;0.10;;;12.30;99.90;;;;;;4916530;29;21029;-74
2023/04/18 09:32:09;;;;;;;0.60;0.10;;;12.30;99.90;;;;;;4918135;29;21005;-75
2023/04/18 09:34:42;;;;;;;0.90;0.37;;;12.30;99.90;;;;;;4904244;29;20532;-74
2023/04/18 09:37:11;;;;;;;0.60;0.10;;;12.40;99.90;;;;;;4897954;29;20494;-75
2023/04/18 09:39:40;;;;;;;0.60;0.10;;;12.30;99.90;;;;;;4897520;29;20451;-75
2023/04/18 09:42:09;;;;;;;0.60;0.10;;;12.40;99.90;;;;;;4897705;29;20469;-75
2023/04/18 09:44:57;;;;;;;0.80;0.50;;;12.40;99.90;;;;;;4897575;29;20545;-75
2023/04/18 09:47:26;;;;;;;0.60;0.20;;;12.50;99.90;;;;;;4898488;29;20503;-74
2023/04/18 09:49:54;;;;;;;1.03;0.73;;;12.50;99.90;;;;;;4904728;29;20455;-74
2023/04/18 09:52:24;;;;;;;0.60;0.30;;;12.40;99.90;;;;;;4921703;29;20662;-73
2023/04/18 09:54:57;;;;;;;0.60;0.10;;;12.50;99.90;;;;;;4923208;29;20458;-75
2023/04/18 09:57:29;;;;;;;0.60;0.20;;;12.60;99.90;;;;;;4922896;29;20474;-75
2023/04/18 10:00:05;;;;;;;1.43;0.77;;;12.60;99.90;;;;;;4902466;29;20451;-75
2023/04/18 10:02:43;;;;;;;0.60;0.20;;;12.60;99.90;;;;;;4901529;29;20458;-75
2023/04/18 10:05:14;;;;;;;1.20;0.60;;;12.70;99.90;;;;;;4910738;29;22249;-75
2023/04/18 10:07:44;;;;;;;1.63;0.30;;;12.70;99.90;;;;;;4907442;29;20537;-75
2023/04/18 10:10:12;;;;;;;0.70;0.40;;;12.90;99.90;;;;;;4916552;29;20457;-75
2023/04/18 10:12:42;;;;;;;2.53;2.27;;;13.00;99.90;;;;;;4916228;29;20880;-74
2023/04/18 10:15:11;;;;;;;0.60;0.20;;;13.20;99.90;;;;;;4916075;29;20813;-76
2023/04/18 10:17:44;;;;;;;1.27;0.67;;;13.30;99.90;;;;;;4964862;23;20515;-76
2023/04/18 10:20:31;;;;;;;0.60;0.20;;;13.30;99.90;;;;;;4939223;29;20455;-77
2023/04/18 10:23:00;;;;;;;0.60;0.20;;;13.40;99.90;;;;;;4939818;29;20536;-76
2023/04/18 10:25:50;;;;;;;0.80;0.80;;;13.40;99.90;;;;;;4936854;29;20454;-75
2023/04/18 10:28:20;;;;;;;0.60;0.10;;;13.40;99.90;;;;;;4911602;29;20483;-77
2023/04/18 10:30:56;;;;;;;1.37;1.20;;;13.40;99.90;;;;;;4909148;29;20911;-76
2023/04/18 10:33:27;;;;;;;0.70;0.33;;;13.40;99.90;;;;;;4910607;29;21027;-76
2023/04/18 10:36:00;;;;;;;0.60;0.20;;;13.40;99.90;;;;;;4908450;29;20511;-76
2023/04/18 10:38:29;;;;;;;0.60;0.10;;;13.40;99.90;;;;;;4903397;29;20707;-75
2023/04/18 10:41:17;;;;;;;0.93;0.50;;;13.40;99.90;;;;;;4919095;29;20520;-77
2023/04/18 10:44:13;;;;;;;0.70;0.30;;;13.50;99.90;;;;;;4911823;29;20463;-77
2023/04/18 10:46:42;;;;;;;0.60;0.37;;;13.50;99.90;;;;;;4907551;29;21081;-77
2023/04/18 10:49:16;;;;;;;0.60;0.10;;;;;;;;;;4922229;29;20453;-76
2023/04/18 10:51:45;;;;;;;0.60;0.10;;;13.70;99.90;;;;;;4919910;29;20930;-77
2023/04/18 10:54:20;;;;;;;0.60;0.30;;;13.90;99.90;;;;;;4924469;29;20459;-77
2023/04/18 10:56:53;;;;;;;0.87;0.87;;;14.10;99.90;;;;;;4922552;29;20478;-76
2023/04/18 10:59:24;;;;;;;1.53;1.43;;;14.30;99.90;;;;;;4922723;29;20454;-77
2023/04/18 11:01:56;;;;;;;0.90;0.50;;;14.40;99.90;;;;;;4922746;29;20531;-78
2023/04/18 11:04:25;;;;;;;1.47;1.37;;;14.30;99.90;;;;;;4921015;29;20456;-77
2023/04/18 11:06:57;;;;;;;2.10;1.37;;;14.30;99.90;;;;;;4922347;29;20468;-78
2023/04/18 11:09:25;;;;;;;2.70;0.90;;;14.20;99.90;;;;;;4920406;29;20448;-77
2023/04/18 11:12:08;;;;;;;0.60;0.13;;;14.20;99.90;;;;;;4923010;29;20471;-79
2023/04/18 11:14:44;;;;;;;1.13;0.97;;;14.40;99.90;;;;;;4921872;29;20514;-77
2023/04/18 11:17:17;;;;;;;0.80;0.40;;;14.40;99.90;;;;;;4919057;29;20545;-76
2023/04/18 11:19:48;;;;;;;0.60;0.10;;;14.40;99.90;;;;;;4919822;29;20437;-77
2023/04/18 11:22:18;;;;;;;0.90;0.50;;;14.30;99.90;;;;;;4919842;29;21009;-77
2023/04/18 11:24:46;;;;;;;1.03;0.40;;;14.20;99.90;;;;;;4920914;29;20453;-77
2023/04/18 11:27:14;;;;;;;0.60;0.27;;;14.30;99.90;;;;;;4920621;29;21041;-78
2023/04/18 11:29:43;;;;;;;4.00;0.80;;;14.20;99.90;;;;;;4921154;29;20551;-77
2023/04/18 11:32:11;;;;;;;0.83;0.43;;;14.30;99.90;;;;;;4919526;29;20646;-78
2023/04/18 11:34:46;;;;;;;0.60;0.20;;;;;;;;;;4919665;29;20986;-79
2023/04/18 11:37:20;;;;;;;1.03;0.93;;;14.30;99.90;;;;;;4919714;29;20491;-78
2023/04/18 11:39:48;;;;;;;0.60;0.20;;;14.40;99.90;;;;;;4919857;29;20461;-77
2023/04/18 11:42:16;;;;;;;0.60;0.30;;;14.40;99.90;;;;;;4919957;29;20442;-77
2023/04/18 11:44:48;;;;;;;0.60;0.10;;;14.40;99.90;;;;;;4919448;29;20456;-77
2023/04/18 11:47:27;;;;;;;1.30;1.13;;;14.50;99.90;;;;;;4903266;29;20574;-76
2023/04/18 11:49:56;;;;;;;3.57;1.23;;;14.40;99.90;;;;;;4915679;29;20982;-78
2023/04/18 11:52:27;;;;;;;0.80;0.37;;;14.40;99.90;;;;;;4920548;29;20456;-77
2023/04/18 11:54:55;;;;;;;0.60;0.10;;;14.40;99.90;;;;;;4920506;29;20523;-77
2023/04/18 11:57:25;;;;;;;2.00;0.67;;;14.40;99.90;;;;;;4921254;29;20606;-78
2023/04/18 11:59:56;;;;;;;0.90;0.83;;;14.30;99.90;;;;;;4919841;29;20464;-76
2023/04/18 12:02:25;;;;;;;0.70;0.30;;;14.30;99.90;;;;;;4920018;29;20451;-78
2023/04/18 12:04:55;;;;;;;0.70;0.40;;;14.40;99.90;;;;;;4920663;29;20838;-77
2023/04/18 12:07:34;;;;;;;1.87;1.53;;;14.50;99.90;;;;;;4921277;29;20570;-77
2023/04/18 12:10:04;;;;;;;0.60;0.10;;;14.60;99.90;;;;;;4921285;29;20476;-78
2023/04/18 12:12:32;;;;;;;0.90;0.57;;;14.60;99.90;;;;;;4904843;29;20467;-76
2023/04/18 12:15:05;;;;;;;0.60;0.20;;;14.70;99.90;;;;;;4911695;29;20459;-77
2023/04/18 12:17:33;;;;;;;0.70;0.50;;;14.70;99.90;;;;;;4902758;29;20532;-78
2023/04/18 12:20:02;;;;;;;0.60;0.10;;;14.80;99.90;;;;;;4903305;29;20450;-77
2023/04/18 12:22:41;;;;;;;1.97;1.07;;;14.90;99.90;;;;;;4909555;29;20479;-77
2023/04/18 12:25:21;;;;;;;4.53;1.87;;;15.00;99.90;;;;;;4922416;29;20449;-77
2023/04/18 12:27:56;;;;;;;1.93;0.30;;;15.00;99.90;;;;;;4921015;29;20491;-77
2023/04/18 12:30:28;;;;;;;1.00;0.70;;;15.10;99.90;;;;;;4916628;29;20480;-76
2023/04/18 12:32:58;;;;;;;0.60;0.10;;;15.10;99.90;;;;;;4911558;29;20550;-77
2023/04/18 12:35:27;;;;;;;0.60;0.40;;;15.00;99.90;;;;;;4920573;29;20448;-77
2023/04/18 12:37:57;;;;;;;0.60;0.20;;;15.00;99.90;;;;;;4924212;29;20553;-76
2023/04/18 12:40:26;;;;;;;0.60;0.10;;;15.00;99.90;;;;;;4923736;29;20444;-78
2023/04/18 12:42:54;;;;;;;0.60;0.10;;;15.00;99.90;;;;;;4910204;29;20456;-77
2023/04/18 12:45:23;;;;;;;0.80;0.47;;;15.00;99.90;;;;;;4902790;29;20465;-77
2023/04/18 12:47:52;;;;;;;0.60;0.10;;;15.00;99.90;;;;;;4917971;29;20475;-76
2023/04/18 12:50:22;;;;;;;0.60;0.10;;;15.10;99.90;;;;;;4917275;29;20488;-75
2023/04/18 12:52:52;;;;;;;1.00;0.80;;;15.10;99.90;;;;;;4916595;29;20822;-76
2023/04/18 12:55:21;;;;;;;0.60;0.10;;;15.10;99.90;;;;;;4913245;29;20450;-76
2023/04/18 12:57:52;;;;;;;0.80;0.70;;;15.20;99.90;;;;;;4906297;29;20525;-77
2023/04/18 13:00:22;;;;;;;0.60;0.20;;;15.20;99.90;;;;;;4916856;29;20461;-77
2023/04/18 13:02:52;;;;;;;0.60;0.20;;;15.10;99.90;;;;;;4916758;29;20459;-77
2023/04/18 13:05:22;;;;;;;0.60;0.20;;;15.20;99.90;;;;;;4915502;29;20451;-77
2023/04/18 13:07:51;;;;;;;0.60;0.10;;;15.20;99.90;;;;;;4910973;29;20487;-76
2023/04/18 13:10:28;;;;;;;1.83;0.77;;;15.20;99.90;;;;;;4913415;29;20496;-77
2023/04/18 13:12:56;;;;;;;0.60;0.10;;;15.20;99.90;;;;;;4915538;29;20447;-77
2023/04/18 13:15:26;;;;;;;0.70;0.23;;;15.20;99.90;;;;;;4915841;29;20464;-77
2023/04/18 13:17:56;;;;;;;0.70;0.30;;;15.10;99.90;;;;;;4913263;29;20478;-77
2023/04/18 13:20:24;;;;;;;0.93;0.70;;;15.10;99.90;;;;;;4913412;29;20448;-76
2023/04/18 13:22:52;;;;;;;0.90;0.50;;;15.00;99.90;;;;;;4906890;29;20938;-77
2023/04/18 13:25:20;;;;;;;1.00;1.00;;;15.00;99.90;;;;;;4907944;29;20550;-77
2023/04/18 13:27:48;;;;;;;0.60;0.23;;;15.00;99.90;;;;;;4907735;29;20547;-76
2023/04/18 13:30:16;;;;;;;0.60;0.10;;;15.00;99.90;;;;;;4916962;29;21028;-77
2023/04/18 13:32:44;;;;;;;3.03;2.13;;;15.00;99.90;;;;;;4917968;29;21112;-77
2023/04/18 13:35:14;;;;;;;0.60;0.10;;;14.90;99.90;;;;;;4916460;29;20456;-77
2023/04/18 13:37:42;;;;;;;0.60;0.10;;;14.90;99.90;;;;;;4916476;29;20476;-77
2023/04/18 13:40:11;;;;;;;0.60;0.10;;;15.00;99.90;;;;;;4918328;29;20446;-77
2023/04/18 13:42:39;;;;;;;0.60;0.47;;;15.10;99.90;;;;;;4919152;29;20451;-77
2023/04/18 13:45:07;;;;;;;0.60;0.10;;;15.10;99.90;;;;;;4919678;29;20460;-77
2023/04/18 13:47:36;;;;;;;2.10;1.17;;;15.10;99.90;;;;;;4918705;29;20464;-78
2023/04/18 13:50:04;;;;;;;2.87;2.63;;;15.20;99.90;;;;;;4915107;29;20524;-77
2023/04/18 13:52:34;;;;;;;0.60;0.10;;;15.20;99.90;;;;;;4910301;29;20454;-77
2023/04/18 13:55:02;;;;;;;0.60;0.20;;;;;;;;;;4918339;29;20838;-77
2023/04/18 13:57:32;;;;;;;0.60;0.10;;;15.20;99.90;;;;;;4920600;29;21001;-78
2023/04/18 14:00:00;;;;;;;0.60;0.20;;;;;;;;;;4911900;29;20458;-77
2023/04/18 14:02:28;;;;;;;0.70;0.40;;;15.30;99.90;;;;;;4920660;29;20459;-78
2023/04/18 14:04:56;;;;;;;1.17;0.70;;;15.50;99.90;;;;;;4920067;29;20456;-77
2023/04/18 14:07:25;;;;;;;0.60;0.30;;;18.30;99.90;;;;;;4919921;29;20511;-77
2023/04/18 14:09:54;;;;;;;0.60;0.27;;;15.60;99.90;;;;;;4920278;29;20484;-78
2023/04/18 14:12:22;;;;;;;2.90;2.63;;;;;;;;;;4919846;29;20465;-77
2023/04/18 14:14:50;;;;;;;0.80;0.80;;;15.70;99.90;;;;;;4920349;29;20463;-77
2023/04/18 14:17:18;;;;;;;0.90;0.73;;;15.70;99.90;;;;;;4919977;29;20509;-77
2023/04/18 14:19:46;;;;;;;3.50;0.50;;;15.60;99.90;;;;;;4911408;29;20450;-77
2023/04/18 14:22:14;;;;;;;2.10;0.83;;;15.60;99.90;;;;;;4917384;29;20502;-77
2023/04/18 14:24:42;;;;;;;1.53;1.20;;;15.50;99.90;;;;;;4919030;29;20468;-77
2023/04/18 14:27:11;;;;;;;1.53;1.43;;;15.40;99.90;;;;;;4920297;29;20474;-78
2023/04/18 14:29:39;;;;;;;2.10;1.63;;;15.40;99.90;;;;;;4917446;29;20489;-77
2023/04/18 14:32:07;;;;;;;0.60;0.10;;;15.30;99.90;;;;;;4915592;29;20968;-77
2023/04/18 14:34:35;;;;;;;1.70;1.33;;;15.30;99.90;;;;;;4914936;29;20459;-77
2023/04/18 14:37:05;;;;;;;2.30;1.37;;;15.30;99.90;;;;;;4920343;29;20474;-78
2023/04/18 14:39:33;;;;;;;1.53;0.70;;;15.30;99.90;;;;;;4920279;29;20452;-77
2023/04/18 14:42:01;;;;;;;1.60;1.50;;;15.20;99.90;;;;;;4919788;29;20496;-77
2023/04/18 14:44:30;;;;;;;1.10;1.00;;;15.10;99.90;;;;;;4910311;29;20512;-76
2023/04/18 14:46:58;;;;;;;2.73;1.90;;;15.10;99.90;;;;;;4914236;29;20468;-76
2023/04/18 14:49:26;;;;;;;6.57;6.03;;;15.10;99.90;;;;;;4919254;29;21013;-78
2023/04/18 14:51:54;;;;;;;0.60;0.30;;;15.10;99.90;;;;;;4919865;29;20458;-77
2023/04/18 14:54:22;;;;;;;1.70;0.70;;;15.20;99.90;;;;;;4919030;29;20451;-77
2023/04/18 14:56:50;;;;;;;1.33;0.70;;;15.20;99.90;;;;;;4911756;29;20493;-77
2023/04/18 14:59:18;;;;;;;2.60;2.40;;;15.30;99.90;;;;;;4903980;29;20514;-77
2023/04/18 15:01:48;;;;;;;0.80;0.57;;;15.40;99.90;;;;;;4919939;29;20460;-77
2023/04/18 15:04:16;;;;;;;0.60;0.10;;;15.40;99.90;;;;;;4919737;29;20459;-77
2023/04/18 15:06:45;;;;;;;1.73;1.17;;;;;;;;;;4919261;29;20482;-77
2023/04/18 15:09:14;;;;;;;0.70;0.40;;;15.30;99.90;;;;;;4912974;29;20471;-77
2023/04/18 15:11:42;;;;;;;2.63;1.30;;;15.30;99.90;;;;;;4917573;29;20993;-77
2023/04/18 15:14:10;;;;;;;5.50;2.50;;;15.30;99.90;;;;;;4922692;29;20457;-76
2023/04/18 15:16:39;;;;;;;1.80;0.67;;;15.20;99.90;;;;;;4923654;29;20479;-77
2023/04/18 15:19:09;;;;;;;0.83;0.30;;;15.20;99.90;;;;;;4921841;29;20451;-77
2023/04/18 15:21:36;;;;;;;1.37;0.83;;;15.30;99.90;;;;;;4919656;29;20507;-77
2023/04/18 15:24:05;;;;;;;0.80;0.43;;;15.40;99.90;;;;;;4919141;29;20444;-77
2023/04/18 15:26:32;;;;;;;0.70;0.53;;;15.50;99.90;;;;;;4918917;29;20491;-77
2023/04/18 15:29:02;;;;;;;4.87;4.37;;;15.70;99.90;;;;;;4920458;29;20441;-77
2023/04/18 15:31:30;;;;;;;0.70;0.33;;;15.70;99.90;;;;;;4909405;29;21125;-77
2023/04/18 15:33:58;;;;;;;1.30;0.97;;;15.70;99.90;;;;;;4913490;29;20464;-77
2023/04/18 15:36:27;;;;;;;1.23;1.13;;;15.80;99.90;;;;;;4916740;29;20468;-78
2023/04/18 15:38:55;;;;;;;0.83;0.60;;;15.90;99.90;;;;;;4918399;29;20467;-77
2023/04/18 15:41:23;;;;;;;3.40;2.13;;;15.90;99.90;;;;;;4918717;29;20469;-77
2023/04/18 15:43:52;;;;;;;2.60;2.10;;;16.00;99.90;;;;;;4909773;29;21022;-78
2023/04/18 15:46:21;;;;;;;2.83;2.27;;;16.00;99.90;;;;;;4909601;29;20559;-77
2023/04/18 15:48:49;;;;;;;3.43;1.90;;;15.60;99.90;;;;;;4918971;29;20487;-76
2023/04/18 15:51:17;;;;;;;1.97;1.07;;;15.50;99.90;;;;;;4919952;29;20480;-77
2023/04/18 15:53:46;;;;;;;1.00;0.83;;;15.40;99.90;;;;;;4918760;29;20511;-76
2023/04/18 15:56:14;;;;;;;1.43;1.20;;;15.30;99.90;;;;;;4914489;29;21025;-77
2023/04/18 15:58:41;;;;;;;3.43;1.07;;;15.20;99.90;;;;;;4916225;29;20481;-78
2023/04/18 16:01:14;;;;;;;0.77;0.30;;;15.30;99.90;;;;;;4900484;29;20454;-77
2023/04/18 16:03:42;;;;;;;0.70;0.20;;;15.20;99.90;;;;;;4900175;29;20811;-78
2023/04/18 16:06:11;;;;;;;4.33;3.47;;;15.20;99.90;;;;;;4908885;29;20484;-77
2023/04/18 16:08:38;;;;;;;5.33;4.47;;;15.10;99.90;;;;;;4907478;29;20936;-77
2023/04/18 16:11:08;;;;;;;0.77;0.60;;;15.10;99.90;;;;;;4910866;29;20485;-76
2023/04/18 16:13:36;;;;;;;4.03;3.70;;;15.10;99.90;;;;;;4918527;29;20454;-78
2023/04/18 16:16:05;;;;;;;2.43;1.70;;;15.00;99.90;;;;;;4918873;29;20487;-77
2023/04/18 16:18:33;;;;;;;1.03;0.60;;;15.00;99.90;;;;;;4910899;29;21025;-76
2023/04/18 16:21:01;;;;;;;2.87;2.20;;;14.80;99.90;;;;;;4906917;29;20449;-77
2023/04/18 16:23:31;;;;;;;0.60;0.20;;;14.50;99.90;;;;;;4908325;29;20540;-77
2023/04/18 16:25:59;;;;;;;1.73;1.63;;;14.60;99.90;;;;;;4905292;29;20479;-77
2023/04/18 16:28:29;;;;;;;1.73;1.17;;;14.50;99.90;;;;;;4917191;29;20465;-77
2023/04/18 16:30:57;;;;;;;2.20;1.70;;;14.30;99.90;;;;;;4909876;29;20477;-76
2023/04/18 16:33:25;;;;;;;0.70;0.50;;;14.30;99.90;;;;;;4914781;29;20455;-76
2023/04/18 16:35:56;;;;;;;0.77;0.30;;;14.30;99.90;;;;;;4903688;29;20501;-77
2023/04/18 16:38:26;;;;;;;2.60;1.03;;;14.20;99.90;;;;;;4903789;29;20447;-76
2023/04/18 16:40:55;;;;;;;2.43;1.03;;;14.20;99.90;;;;;;4907472;29;20461;-77
2023/04/18 16:43:25;;;;;;;1.43;1.33;;;14.20;99.90;;;;;;4915292;29;20458;-77
2023/04/18 16:45:56;;;;;;;2.83;2.63;;;14.20;99.90;;;;;;4910981;29;20489;-76
2023/04/18 16:48:24;;;;;;;1.50;0.73;;;14.20;99.90;;;;;;4899073;29;20604;-77
2023/04/18 16:50:52;;;;;;;0.60;0.10;;;14.20;99.90;;;;;;4908120;29;21010;-76
2023/04/18 16:53:21;;;;;;;2.40;2.20;;;14.20;99.90;;;;;;4917326;29;20468;-77
2023/04/18 16:55:49;;;;;;;3.27;1.30;;;14.10;99.90;;;;;;4937887;23;21000;-74
2023/04/18 16:58:17;;;;;;;2.60;1.10;;;14.10;99.90;;;;;;4935674;29;20494;-75
2023/04/18 17:00:45;;;;;;;4.20;1.47;;;14.10;99.90;;;;;;4937151;29;20440;-75
2023/04/18 17:03:14;;;;;;;1.37;1.23;;;14.00;99.90;;;;;;4936373;29;20447;-77
2023/04/18 17:05:42;;;;;;;0.90;0.53;;;13.90;99.90;;;;;;4930419;29;20477;-75